Terminal Aerodrome Forecast
Issued by NWS

Home | Current Version | Previous Version | Text Only | Print | Product List | Glossary On
Versions: 1 2 3 4 5 6 7 8 9 10 11 12
000
FTAK31 PAJN 021700
TAFAGY
TAF
PAGY 021720Z 0218/0318 21012KT P6SM SCT040 OVC060
      TEMPO 0218/0221 SCT030 BKN040 OVC060
     FM022100 21015G25KT P6SM BKN060
     FM030600 21010G20KT P6SM VCSH BKN070 BKN120
     FM031500 21015G25KT 6SM -RA BR SCT025 BKN050 OVC070
      AMD LTD TO CLD VIS AND WIND=

USA.gov is the U.S. government's official web portal to all federal, state and local government web resources and services.